sensor_id;sensor_type;location;lat;lon;timestamp;P1;durP1;ratioP1;P2;durP2;ratioP2
6438;SDS011;3252;52.540;13.290;2024-02-23T00:01:17;0.57;;;0.57;;
6438;SDS011;3252;52.540;13.290;2024-02-23T00:03:20;0.50;;;0.50;;
6438;SDS011;3252;52.540;13.290;2024-02-23T00:05:21;0.47;;;0.40;;
6438;SDS011;3252;52.540;13.290;2024-02-23T00:07:23;0.63;;;0.50;;
6438;SDS011;3252;52.540;13.290;2024-02-23T00:09:25;0.47;;;0.40;;
6438;SDS011;3252;52.540;13.290;2024-02-23T00:11:29;0.60;;;0.50;;
6438;SDS011;3252;52.540;13.290;2024-02-23T00:13:32;0.70;;;0.50;;
6438;SDS011;3252;52.540;13.290;2024-02-23T00:15:33;0.93;;;0.40;;
6438;SDS011;3252;52.540;13.290;2024-02-23T00:17:35;0.40;;;0.40;;
6438;SDS011;3252;52.540;13.290;2024-02-23T00:19:38;1.40;;;0.50;;
6438;SDS011;3252;52.540;13.290;2024-02-23T00:21:40;0.43;;;0.43;;
6438;SDS011;3252;52.540;13.290;2024-02-23T00:23:42;0.63;;;0.40;;
6438;SDS011;3252;52.540;13.290;2024-02-23T00:25:44;0.87;;;0.50;;
6438;SDS011;3252;52.540;13.290;2024-02-23T00:27:48;0.57;;;0.50;;
6438;SDS011;3252;52.540;13.290;2024-02-23T00:29:50;0.50;;;0.50;;
6438;SDS011;3252;52.540;13.290;2024-02-23T00:31:52;0.77;;;0.50;;
6438;SDS011;3252;52.540;13.290;2024-02-23T00:33:53;0.45;;;0.45;;
6438;SDS011;3252;52.540;13.290;2024-02-23T00:35:55;0.40;;;0.30;;
6438;SDS011;3252;52.540;13.290;2024-02-23T00:37:57;1.07;;;0.50;;
6438;SDS011;3252;52.540;13.290;2024-02-23T00:39:59;0.50;;;0.50;;
6438;SDS011;3252;52.540;13.290;2024-02-23T00:42:01;0.53;;;0.40;;
6438;SDS011;3252;52.540;13.290;2024-02-23T00:44:05;0.50;;;0.50;;
6438;SDS011;3252;52.540;13.290;2024-02-23T00:46:07;0.50;;;0.47;;
6438;SDS011;3252;52.540;13.290;2024-02-23T00:48:10;0.50;;;0.50;;
6438;SDS011;3252;52.540;13.290;2024-02-23T00:50:14;0.60;;;0.40;;
6438;SDS011;3252;52.540;13.290;2024-02-23T00:52:16;0.97;;;0.50;;
6438;SDS011;3252;52.540;13.290;2024-02-23T00:54:18;0.40;;;0.33;;
6438;SDS011;3252;52.540;13.290;2024-02-23T00:56:19;0.40;;;0.40;;
6438;SDS011;3252;52.540;13.290;2024-02-23T00:58:21;0.40;;;0.40;;
6438;SDS011;3252;52.540;13.290;2024-02-23T01:00:25;0.57;;;0.50;;
6438;SDS011;3252;52.540;13.290;2024-02-23T01:02:27;0.70;;;0.40;;
6438;SDS011;3252;52.540;13.290;2024-02-23T01:04:29;0.73;;;0.60;;
6438;SDS011;3252;52.540;13.290;2024-02-23T01:06:31;0.47;;;0.47;;
6438;SDS011;3252;52.540;13.290;2024-02-23T01:08:33;0.40;;;0.40;;
6438;SDS011;3252;52.540;13.290;2024-02-23T01:10:36;0.70;;;0.50;;
6438;SDS011;3252;52.540;13.290;2024-02-23T01:12:38;0.40;;;0.40;;
6438;SDS011;3252;52.540;13.290;2024-02-23T01:14:40;0.40;;;0.40;;
6438;SDS011;3252;52.540;13.290;2024-02-23T01:16:44;0.40;;;0.30;;
6438;SDS011;3252;52.540;13.290;2024-02-23T01:18:45;0.57;;;0.37;;
6438;SDS011;3252;52.540;13.290;2024-02-23T01:20:47;0.30;;;0.30;;
6438;SDS011;3252;52.540;13.290;2024-02-23T01:22:49;0.40;;;0.40;;
6438;SDS011;3252;52.540;13.290;2024-02-23T01:24:51;0.40;;;0.33;;
6438;SDS011;3252;52.540;13.290;2024-02-23T01:26:54;0.40;;;0.30;;
6438;SDS011;3252;52.540;13.290;2024-02-23T01:28:56;0.30;;;0.30;;
6438;SDS011;3252;52.540;13.290;2024-02-23T01:30:58;0.30;;;0.30;;
6438;SDS011;3252;52.540;13.290;2024-02-23T01:33:02;0.60;;;0.50;;
6438;SDS011;3252;52.540;13.290;2024-02-23T01:35:05;0.73;;;0.50;;
6438;SDS011;3252;52.540;13.290;2024-02-23T01:37:08;0.40;;;0.40;;
6438;SDS011;3252;52.540;13.290;2024-02-23T01:39:10;0.30;;;0.30;;
6438;SDS011;3252;52.540;13.290;2024-02-23T01:41:12;0.40;;;0.40;;
6438;SDS011;3252;52.540;13.290;2024-02-23T01:43:13;0.70;;;0.37;;
6438;SDS011;3252;52.540;13.290;2024-02-23T01:45:15;0.37;;;0.37;;
6438;SDS011;3252;52.540;13.290;2024-02-23T01:47:17;0.33;;;0.30;;
6438;SDS011;3252;52.540;13.290;2024-02-23T01:49:21;0.43;;;0.40;;
6438;SDS011;3252;52.540;13.290;2024-02-23T01:51:29;0.43;;;0.43;;
6438;SDS011;3252;52.540;13.290;2024-02-23T01:53:33;0.30;;;0.27;;
6438;SDS011;3252;52.540;13.290;2024-02-23T01:55:35;0.33;;;0.33;;
6438;SDS011;3252;52.540;13.290;2024-02-23T01:57:39;0.33;;;0.33;;
6438;SDS011;3252;52.540;13.290;2024-02-23T01:59:40;0.80;;;0.50;;
6438;SDS011;3252;52.540;13.290;2024-02-23T02:01:43;0.33;;;0.30;;
6438;SDS011;3252;52.540;13.290;2024-02-23T02:03:45;0.40;;;0.30;;
6438;SDS011;3252;52.540;13.290;2024-02-23T02:05:49;0.30;;;0.30;;
6438;SDS011;3252;52.540;13.290;2024-02-23T02:07:51;0.47;;;0.30;;
6438;SDS011;3252;52.540;13.290;2024-02-23T02:09:59;0.30;;;0.27;;
6438;SDS011;3252;52.540;13.290;2024-02-23T02:12:01;0.37;;;0.37;;
6438;SDS011;3252;52.540;13.290;2024-02-23T02:14:03;0.23;;;0.23;;
6438;SDS011;3252;52.540;13.290;2024-02-23T02:16:05;0.50;;;0.40;;
6438;SDS011;3252;52.540;13.290;2024-02-23T02:18:06;0.43;;;0.40;;
6438;SDS011;3252;52.540;13.290;2024-02-23T02:20:10;0.40;;;0.37;;
6438;SDS011;3252;52.540;13.290;2024-02-23T02:22:14;0.47;;;0.40;;
6438;SDS011;3252;52.540;13.290;2024-02-23T02:24:17;0.57;;;0.40;;
6438;SDS011;3252;52.540;13.290;2024-02-23T02:26:19;0.50;;;0.50;;
6438;SDS011;3252;52.540;13.290;2024-02-23T02:28:21;0.30;;;0.30;;
6438;SDS011;3252;52.540;13.290;2024-02-23T02:30:22;0.37;;;0.30;;
6438;SDS011;3252;52.540;13.290;2024-02-23T02:32:24;0.20;;;0.20;;
6438;SDS011;3252;52.540;13.290;2024-02-23T02:34:25;0.40;;;0.40;;
6438;SDS011;3252;52.540;13.290;2024-02-23T02:36:29;0.40;;;0.40;;
6438;SDS011;3252;52.540;13.290;2024-02-23T02:38:31;0.20;;;0.20;;
6438;SDS011;3252;52.540;13.290;2024-02-23T02:40:34;0.23;;;0.23;;
6438;SDS011;3252;52.540;13.290;2024-02-23T02:42:36;0.37;;;0.37;;
6438;SDS011;3252;52.540;13.290;2024-02-23T02:44:38;0.30;;;0.30;;
6438;SDS011;3252;52.540;13.290;2024-02-23T02:46:40;0.30;;;0.30;;
6438;SDS011;3252;52.540;13.290;2024-02-23T02:48:43;0.40;;;0.40;;
6438;SDS011;3252;52.540;13.290;2024-02-23T02:50:45;0.50;;;0.50;;
6438;SDS011;3252;52.540;13.290;2024-02-23T02:52:47;0.70;;;0.40;;
6438;SDS011;3252;52.540;13.290;2024-02-23T02:54:50;0.20;;;0.20;;
6438;SDS011;3252;52.540;13.290;2024-02-23T02:56:52;0.50;;;0.50;;
6438;SDS011;3252;52.540;13.290;2024-02-23T02:58:55;0.33;;;0.30;;
6438;SDS011;3252;52.540;13.290;2024-02-23T03:00:56;0.37;;;0.37;;
6438;SDS011;3252;52.540;13.290;2024-02-23T03:02:58;0.30;;;0.30;;
6438;SDS011;3252;52.540;13.290;2024-02-23T03:05:00;0.67;;;0.30;;
6438;SDS011;3252;52.540;13.290;2024-02-23T03:07:02;0.27;;;0.20;;
6438;SDS011;3252;52.540;13.290;2024-02-23T03:09:05;0.40;;;0.40;;
6438;SDS011;3252;52.540;13.290;2024-02-23T03:11:09;0.30;;;0.23;;
6438;SDS011;3252;52.540;13.290;2024-02-23T03:13:12;0.30;;;0.30;;
6438;SDS011;3252;52.540;13.290;2024-02-23T03:15:14;0.20;;;0.20;;
6438;SDS011;3252;52.540;13.290;2024-02-23T03:17:16;0.30;;;0.30;;
6438;SDS011;3252;52.540;13.290;2024-02-23T03:19:18;0.43;;;0.30;;
6438;SDS011;3252;52.540;13.290;2024-02-23T03:21:22;0.47;;;0.40;;
6438;SDS011;3252;52.540;13.290;2024-02-23T03:23:24;0.30;;;0.23;;
6438;SDS011;3252;52.540;13.290;2024-02-23T03:25:26;0.40;;;0.40;;
6438;SDS011;3252;52.540;13.290;2024-02-23T03:27:30;0.40;;;0.30;;
6438;SDS011;3252;52.540;13.290;2024-02-23T03:29:32;0.30;;;0.30;;
6438;SDS011;3252;52.540;13.290;2024-02-23T03:31:34;0.40;;;0.40;;
6438;SDS011;3252;52.540;13.290;2024-02-23T03:33:36;0.40;;;0.40;;
6438;SDS011;3252;52.540;13.290;2024-02-23T03:35:38;0.30;;;0.30;;
6438;SDS011;3252;52.540;13.290;2024-02-23T03:37:40;0.97;;;0.40;;
6438;SDS011;3252;52.540;13.290;2024-02-23T03:39:42;0.30;;;0.30;;
6438;SDS011;3252;52.540;13.290;2024-02-23T03:41:43;0.40;;;0.40;;
6438;SDS011;3252;52.540;13.290;2024-02-23T03:43:47;0.30;;;0.30;;
6438;SDS011;3252;52.540;13.290;2024-02-23T03:45:49;0.30;;;0.30;;
6438;SDS011;3252;52.540;13.290;2024-02-23T03:47:50;0.20;;;0.20;;
6438;SDS011;3252;52.540;13.290;2024-02-23T03:49:52;0.47;;;0.40;;
6438;SDS011;3252;52.540;13.290;2024-02-23T03:51:54;0.30;;;0.20;;
6438;SDS011;3252;52.540;13.290;2024-02-23T03:53:56;0.23;;;0.20;;
6438;SDS011;3252;52.540;13.290;2024-02-23T03:55:58;0.40;;;0.40;;
6438;SDS011;3252;52.540;13.290;2024-02-23T03:58:00;0.47;;;0.30;;
6438;SDS011;3252;52.540;13.290;2024-02-23T04:00:04;0.30;;;0.30;;
6438;SDS011;3252;52.540;13.290;2024-02-23T04:02:15;0.40;;;0.40;;
6438;SDS011;3252;52.540;13.290;2024-02-23T04:04:17;0.20;;;0.20;;
6438;SDS011;3252;52.540;13.290;2024-02-23T04:06:19;0.37;;;0.37;;
6438;SDS011;3252;52.540;13.290;2024-02-23T04:08:21;0.20;;;0.20;;
6438;SDS011;3252;52.540;13.290;2024-02-23T04:10:23;0.30;;;0.30;;
6438;SDS011;3252;52.540;13.290;2024-02-23T04:12:25;0.20;;;0.20;;
6438;SDS011;3252;52.540;13.290;2024-02-23T04:14:27;0.10;;;0.10;;
6438;SDS011;3252;52.540;13.290;2024-02-23T04:16:30;0.20;;;0.20;;
6438;SDS011;3252;52.540;13.290;2024-02-23T04:18:33;0.30;;;0.30;;
6438;SDS011;3252;52.540;13.290;2024-02-23T04:20:34;0.40;;;0.40;;
6438;SDS011;3252;52.540;13.290;2024-02-23T04:22:36;0.60;;;0.30;;
6438;SDS011;3252;52.540;13.290;2024-02-23T04:24:39;0.20;;;0.20;;
6438;SDS011;3252;52.540;13.290;2024-02-23T04:26:41;0.30;;;0.30;;
6438;SDS011;3252;52.540;13.290;2024-02-23T04:28:42;0.20;;;0.20;;
6438;SDS011;3252;52.540;13.290;2024-02-23T04:30:44;0.30;;;0.30;;
6438;SDS011;3252;52.540;13.290;2024-02-23T04:32:48;0.37;;;0.30;;
6438;SDS011;3252;52.540;13.290;2024-02-23T04:34:50;0.17;;;0.17;;
6438;SDS011;3252;52.540;13.290;2024-02-23T04:36:52;0.30;;;0.30;;
6438;SDS011;3252;52.540;13.290;2024-02-23T04:38:54;0.20;;;0.20;;
6438;SDS011;3252;52.540;13.290;2024-02-23T04:40:56;0.60;;;0.30;;
6438;SDS011;3252;52.540;13.290;2024-02-23T04:42:59;0.30;;;0.27;;
6438;SDS011;3252;52.540;13.290;2024-02-23T04:45:01;0.30;;;0.30;;
6438;SDS011;3252;52.540;13.290;2024-02-23T04:47:04;0.30;;;0.27;;
6438;SDS011;3252;52.540;13.290;2024-02-23T04:49:08;0.10;;;0.10;;
6438;SDS011;3252;52.540;13.290;2024-02-23T04:51:12;0.20;;;0.20;;
6438;SDS011;3252;52.540;13.290;2024-02-23T04:53:14;0.40;;;0.40;;
6438;SDS011;3252;52.540;13.290;2024-02-23T04:55:16;0.40;;;0.30;;
6438;SDS011;3252;52.540;13.290;2024-02-23T04:57:18;0.40;;;0.30;;
6438;SDS011;3252;52.540;13.290;2024-02-23T04:59:19;0.30;;;0.27;;
6438;SDS011;3252;52.540;13.290;2024-02-23T05:01:21;0.30;;;0.30;;
6438;SDS011;3252;52.540;13.290;2024-02-23T05:03:23;0.30;;;0.30;;
6438;SDS011;3252;52.540;13.290;2024-02-23T05:05:28;0.30;;;0.30;;
6438;SDS011;3252;52.540;13.290;2024-02-23T05:07:30;0.20;;;0.20;;
6438;SDS011;3252;52.540;13.290;2024-02-23T05:09:32;0.20;;;0.20;;
6438;SDS011;3252;52.540;13.290;2024-02-23T05:11:35;0.20;;;0.20;;
6438;SDS011;3252;52.540;13.290;2024-02-23T05:13:37;0.20;;;0.20;;
6438;SDS011;3252;52.540;13.290;2024-02-23T05:15:42;0.20;;;0.20;;
6438;SDS011;3252;52.540;13.290;2024-02-23T05:17:44;0.60;;;0.40;;
6438;SDS011;3252;52.540;13.290;2024-02-23T05:19:46;0.32;;;0.20;;
6438;SDS011;3252;52.540;13.290;2024-02-23T05:21:48;0.20;;;0.20;;
6438;SDS011;3252;52.540;13.290;2024-02-23T05:23:50;0.30;;;0.30;;
6438;SDS011;3252;52.540;13.290;2024-02-23T05:25:52;0.20;;;0.20;;
6438;SDS011;3252;52.540;13.290;2024-02-23T05:27:55;0.13;;;0.13;;
6438;SDS011;3252;52.540;13.290;2024-02-23T05:29:57;0.43;;;0.33;;
6438;SDS011;3252;52.540;13.290;2024-02-23T05:31:59;0.20;;;0.20;;
6438;SDS011;3252;52.540;13.290;2024-02-23T05:34:01;0.20;;;0.20;;
6438;SDS011;3252;52.540;13.290;2024-02-23T05:36:03;0.30;;;0.30;;
6438;SDS011;3252;52.540;13.290;2024-02-23T05:38:07;0.40;;;0.20;;
6438;SDS011;3252;52.540;13.290;2024-02-23T05:40:09;0.50;;;0.20;;
6438;SDS011;3252;52.540;13.290;2024-02-23T05:42:12;0.10;;;0.10;;
6438;SDS011;3252;52.540;13.290;2024-02-23T05:44:13;0.20;;;0.20;;
6438;SDS011;3252;52.540;13.290;2024-02-23T05:46:15;0.20;;;0.20;;
6438;SDS011;3252;52.540;13.290;2024-02-23T05:48:18;0.30;;;0.30;;
6438;SDS011;3252;52.540;13.290;2024-02-23T05:50:20;0.23;;;0.23;;
6438;SDS011;3252;52.540;13.290;2024-02-23T05:52:23;0.40;;;0.30;;
6438;SDS011;3252;52.540;13.290;2024-02-23T05:54:26;0.20;;;0.20;;
6438;SDS011;3252;52.540;13.290;2024-02-23T05:56:28;0.10;;;0.10;;
6438;SDS011;3252;52.540;13.290;2024-02-23T05:58:30;0.30;;;0.30;;
6438;SDS011;3252;52.540;13.290;2024-02-23T06:00:33;0.40;;;0.40;;
6438;SDS011;3252;52.540;13.290;2024-02-23T06:02:35;0.28;;;0.28;;
6438;SDS011;3252;52.540;13.290;2024-02-23T06:04:37;0.20;;;0.20;;
6438;SDS011;3252;52.540;13.290;2024-02-23T06:06:40;0.32;;;0.32;;
6438;SDS011;3252;52.540;13.290;2024-02-23T06:08:43;0.22;;;0.22;;
6438;SDS011;3252;52.540;13.290;2024-02-23T06:10:48;0.20;;;0.20;;
6438;SDS011;3252;52.540;13.290;2024-02-23T06:12:50;0.47;;;0.40;;
6438;SDS011;3252;52.540;13.290;2024-02-23T06:14:52;0.20;;;0.20;;
6438;SDS011;3252;52.540;13.290;2024-02-23T06:16:55;0.20;;;0.20;;
6438;SDS011;3252;52.540;13.290;2024-02-23T06:18:56;0.30;;;0.30;;
6438;SDS011;3252;52.540;13.290;2024-02-23T06:20:58;0.60;;;0.30;;
6438;SDS011;3252;52.540;13.290;2024-02-23T06:23:01;1.08;;;0.47;;
6438;SDS011;3252;52.540;13.290;2024-02-23T06:25:03;1.40;;;0.50;;
6438;SDS011;3252;52.540;13.290;2024-02-23T06:27:07;0.85;;;0.40;;
6438;SDS011;3252;52.540;13.290;2024-02-23T06:29:09;2.90;;;0.40;;
6438;SDS011;3252;52.540;13.290;2024-02-23T06:31:13;0.43;;;0.40;;
6438;SDS011;3252;52.540;13.290;2024-02-23T06:33:15;1.27;;;0.60;;
6438;SDS011;3252;52.540;13.290;2024-02-23T06:35:17;1.02;;;0.55;;
6438;SDS011;3252;52.540;13.290;2024-02-23T06:37:19;3.65;;;1.55;;
6438;SDS011;3252;52.540;13.290;2024-02-23T06:39:21;3.78;;;1.80;;
6438;SDS011;3252;52.540;13.290;2024-02-23T06:41:23;7.53;;;2.42;;
6438;SDS011;3252;52.540;13.290;2024-02-23T06:43:26;8.60;;;2.53;;
6438;SDS011;3252;52.540;13.290;2024-02-23T06:45:28;8.85;;;2.65;;
6438;SDS011;3252;52.540;13.290;2024-02-23T06:47:30;8.18;;;3.20;;
6438;SDS011;3252;52.540;13.290;2024-02-23T06:49:31;9.60;;;2.88;;
6438;SDS011;3252;52.540;13.290;2024-02-23T06:51:33;7.63;;;2.92;;
6438;SDS011;3252;52.540;13.290;2024-02-23T06:53:35;10.45;;;4.00;;
6438;SDS011;3252;52.540;13.290;2024-02-23T06:55:38;11.43;;;3.42;;
6438;SDS011;3252;52.540;13.290;2024-02-23T06:57:40;9.50;;;3.47;;
6438;SDS011;3252;52.540;13.290;2024-02-23T06:59:43;16.80;;;4.30;;
6438;SDS011;3252;52.540;13.290;2024-02-23T07:01:49;14.65;;;4.00;;
6438;SDS011;3252;52.540;13.290;2024-02-23T07:03:51;9.63;;;3.55;;
6438;SDS011;3252;52.540;13.290;2024-02-23T07:05:52;10.25;;;3.75;;
6438;SDS011;3252;52.540;13.290;2024-02-23T07:07:55;11.90;;;4.15;;
6438;SDS011;3252;52.540;13.290;2024-02-23T07:09:56;9.40;;;3.85;;
6438;SDS011;3252;52.540;13.290;2024-02-23T07:11:58;12.32;;;4.32;;
6438;SDS011;3252;52.540;13.290;2024-02-23T07:14:01;9.20;;;3.85;;
6438;SDS011;3252;52.540;13.290;2024-02-23T07:16:05;10.20;;;4.15;;
6438;SDS011;3252;52.540;13.290;2024-02-23T07:18:07;9.85;;;3.90;;
6438;SDS011;3252;52.540;13.290;2024-02-23T07:20:10;11.93;;;4.55;;
6438;SDS011;3252;52.540;13.290;2024-02-23T07:22:12;10.60;;;3.90;;
6438;SDS011;3252;52.540;13.290;2024-02-23T07:24:15;10.80;;;4.20;;
6438;SDS011;3252;52.540;13.290;2024-02-23T07:26:18;10.70;;;4.40;;
6438;SDS011;3252;52.540;13.290;2024-02-23T07:28:22;11.10;;;4.05;;
6438;SDS011;3252;52.540;13.290;2024-02-23T07:30:24;10.18;;;3.97;;
6438;SDS011;3252;52.540;13.290;2024-02-23T07:32:27;13.13;;;4.20;;
6438;SDS011;3252;52.540;13.290;2024-02-23T07:34:30;10.25;;;4.10;;
6438;SDS011;3252;52.540;13.290;2024-02-23T07:36:32;8.73;;;3.70;;
6438;SDS011;3252;52.540;13.290;2024-02-23T07:38:35;9.90;;;3.67;;
6438;SDS011;3252;52.540;13.290;2024-02-23T07:40:36;11.05;;;4.00;;
6438;SDS011;3252;52.540;13.290;2024-02-23T07:42:38;11.95;;;4.03;;
6438;SDS011;3252;52.540;13.290;2024-02-23T07:44:39;12.80;;;4.95;;
6438;SDS011;3252;52.540;13.290;2024-02-23T07:46:42;11.13;;;3.95;;
6438;SDS011;3252;52.540;13.290;2024-02-23T07:48:46;10.48;;;4.50;;
6438;SDS011;3252;52.540;13.290;2024-02-23T07:50:48;12.10;;;4.05;;
6438;SDS011;3252;52.540;13.290;2024-02-23T07:52:51;11.73;;;4.13;;
6438;SDS011;3252;52.540;13.290;2024-02-23T07:54:53;10.52;;;4.18;;
6438;SDS011;3252;52.540;13.290;2024-02-23T07:56:54;10.10;;;3.97;;
6438;SDS011;3252;52.540;13.290;2024-02-23T07:58:57;8.95;;;4.10;;
6438;SDS011;3252;52.540;13.290;2024-02-23T08:00:59;9.75;;;3.65;;
6438;SDS011;3252;52.540;13.290;2024-02-23T08:03:02;11.93;;;3.97;;
6438;SDS011;3252;52.540;13.290;2024-02-23T08:05:06;10.80;;;4.05;;
6438;SDS011;3252;52.540;13.290;2024-02-23T08:07:08;13.30;;;4.35;;
6438;SDS011;3252;52.540;13.290;2024-02-23T08:09:12;11.05;;;4.03;;
6438;SDS011;3252;52.540;13.290;2024-02-23T08:11:14;8.52;;;3.92;;
6438;SDS011;3252;52.540;13.290;2024-02-23T08:13:16;9.32;;;4.15;;
6438;SDS011;3252;52.540;13.290;2024-02-23T08:15:19;9.88;;;3.97;;
6438;SDS011;3252;52.540;13.290;2024-02-23T08:17:21;9.32;;;4.30;;
6438;SDS011;3252;52.540;13.290;2024-02-23T08:19:23;8.70;;;4.07;;
6438;SDS011;3252;52.540;13.290;2024-02-23T08:21:26;9.48;;;4.05;;
6438;SDS011;3252;52.540;13.290;2024-02-23T08:23:29;10.43;;;4.28;;
6438;SDS011;3252;52.540;13.290;2024-02-23T08:25:31;10.40;;;4.10;;
6438;SDS011;3252;52.540;13.290;2024-02-23T08:27:33;8.52;;;3.80;;
6438;SDS011;3252;52.540;13.290;2024-02-23T08:29:37;9.95;;;3.78;;
6438;SDS011;3252;52.540;13.290;2024-02-23T08:31:42;10.25;;;3.63;;
6438;SDS011;3252;52.540;13.290;2024-02-23T08:37:04;8.38;;;3.72;;
6438;SDS011;3252;52.540;13.290;2024-02-23T08:39:06;15.63;;;6.63;;
6438;SDS011;3252;52.540;13.290;2024-02-23T08:41:09;41.55;;;27.23;;
6438;SDS011;3252;52.540;13.290;2024-02-23T08:43:11;214.30;;;141.77;;
6438;SDS011;3252;52.540;13.290;2024-02-23T08:45:15;160.18;;;90.65;;
6438;SDS011;3252;52.540;13.290;2024-02-23T08:47:17;120.60;;;62.58;;
6438;SDS011;3252;52.540;13.290;2024-02-23T08:49:19;655.03;;;490.48;;
6438;SDS011;3252;52.540;13.290;2024-02-23T08:51:20;605.90;;;441.13;;
6438;SDS011;3252;52.540;13.290;2024-02-23T08:53:23;502.42;;;329.58;;
6438;SDS011;3252;52.540;13.290;2024-02-23T08:55:26;528.05;;;347.02;;
6438;SDS011;3252;52.540;13.290;2024-02-23T08:57:29;602.58;;;411.17;;
6438;SDS011;3252;52.540;13.290;2024-02-23T08:59:31;511.30;;;311.60;;
6438;SDS011;3252;52.540;13.290;2024-02-23T09:01:33;443.40;;;245.13;;
6438;SDS011;3252;52.540;13.290;2024-02-23T09:03:35;800.42;;;576.35;;
6438;SDS011;3252;52.540;13.290;2024-02-23T09:05:36;982.17;;;696.58;;
6438;SDS011;3252;52.540;13.290;2024-02-23T09:07:39;1162.70;;;777.28;;
6438;SDS011;3252;52.540;13.290;2024-02-23T09:09:42;988.28;;;678.10;;
6438;SDS011;3252;52.540;13.290;2024-02-23T09:11:44;892.97;;;602.83;;
6438;SDS011;3252;52.540;13.290;2024-02-23T09:13:47;762.67;;;493.45;;
6438;SDS011;3252;52.540;13.290;2024-02-23T09:15:49;677.63;;;426.13;;
6438;SDS011;3252;52.540;13.290;2024-02-23T09:17:51;590.75;;;341.73;;
6438;SDS011;3252;52.540;13.290;2024-02-23T09:19:53;382.23;;;168.95;;
6438;SDS011;3252;52.540;13.290;2024-02-23T09:21:56;257.67;;;103.45;;
6438;SDS011;3252;52.540;13.290;2024-02-23T09:24:00;192.32;;;71.03;;
6438;SDS011;3252;52.540;13.290;2024-02-23T09:26:08;98.68;;;34.05;;
6438;SDS011;3252;52.540;13.290;2024-02-23T09:28:11;47.60;;;16.10;;
6438;SDS011;3252;52.540;13.290;2024-02-23T09:30:13;23.45;;;7.85;;
6438;SDS011;3252;52.540;13.290;2024-02-23T09:32:15;9.73;;;3.83;;
6438;SDS011;3252;52.540;13.290;2024-02-23T09:34:17;8.75;;;2.53;;
6438;SDS011;3252;52.540;13.290;2024-02-23T09:36:20;6.38;;;1.98;;
6438;SDS011;3252;52.540;13.290;2024-02-23T09:38:22;3.92;;;1.70;;
6438;SDS011;3252;52.540;13.290;2024-02-23T09:40:24;7.05;;;2.25;;
6438;SDS011;3252;52.540;13.290;2024-02-23T09:42:28;3.00;;;1.65;;
6438;SDS011;3252;52.540;13.290;2024-02-23T09:44:32;4.13;;;1.65;;
6438;SDS011;3252;52.540;13.290;2024-02-23T09:46:35;3.80;;;1.80;;
6438;SDS011;3252;52.540;13.290;2024-02-23T09:48:39;3.90;;;1.60;;
6438;SDS011;3252;52.540;13.290;2024-02-23T09:50:41;5.10;;;1.60;;
6438;SDS011;3252;52.540;13.290;2024-02-23T09:52:44;3.55;;;1.48;;
6438;SDS011;3252;52.540;13.290;2024-02-23T09:54:47;4.57;;;1.80;;
6438;SDS011;3252;52.540;13.290;2024-02-23T09:56:49;2.35;;;1.35;;
6438;SDS011;3252;52.540;13.290;2024-02-23T09:58:54;3.13;;;1.50;;
6438;SDS011;3252;52.540;13.290;2024-02-23T10:00:58;3.15;;;1.50;;
6438;SDS011;3252;52.540;13.290;2024-02-23T10:03:02;2.17;;;1.30;;
6438;SDS011;3252;52.540;13.290;2024-02-23T10:05:05;3.95;;;1.52;;
6438;SDS011;3252;52.540;13.290;2024-02-23T10:07:09;4.20;;;1.75;;
6438;SDS011;3252;52.540;13.290;2024-02-23T10:09:11;2.72;;;1.50;;
6438;SDS011;3252;52.540;13.290;2024-02-23T10:11:13;1.92;;;1.30;;
6438;SDS011;3252;52.540;13.290;2024-02-23T10:13:17;2.33;;;1.40;;
6438;SDS011;3252;52.540;13.290;2024-02-23T10:15:20;2.70;;;1.17;;
6438;SDS011;3252;52.540;13.290;2024-02-23T10:17:22;2.60;;;1.10;;
6438;SDS011;3252;52.540;13.290;2024-02-23T10:19:25;2.70;;;1.20;;
6438;SDS011;3252;52.540;13.290;2024-02-23T10:21:29;3.75;;;1.55;;
6438;SDS011;3252;52.540;13.290;2024-02-23T10:23:31;2.67;;;1.25;;
6438;SDS011;3252;52.540;13.290;2024-02-23T10:25:33;2.30;;;1.05;;
6438;SDS011;3252;52.540;13.290;2024-02-23T10:27:36;2.22;;;1.15;;
6438;SDS011;3252;52.540;13.290;2024-02-23T10:29:38;2.25;;;1.20;;
6438;SDS011;3252;52.540;13.290;2024-02-23T10:31:41;2.17;;;1.15;;
6438;SDS011;3252;52.540;13.290;2024-02-23T10:33:47;1.85;;;1.02;;
6438;SDS011;3252;52.540;13.290;2024-02-23T10:35:54;2.08;;;1.08;;
6438;SDS011;3252;52.540;13.290;2024-02-23T10:37:58;1.92;;;1.00;;
6438;SDS011;3252;52.540;13.290;2024-02-23T10:40:01;1.52;;;1.00;;
6438;SDS011;3252;52.540;13.290;2024-02-23T10:42:04;2.83;;;1.20;;
6438;SDS011;3252;52.540;13.290;2024-02-23T10:44:10;3.90;;;1.30;;
6438;SDS011;3252;52.540;13.290;2024-02-23T10:46:13;2.67;;;0.88;;
6438;SDS011;3252;52.540;13.290;2024-02-23T10:48:18;1.60;;;0.90;;
6438;SDS011;3252;52.540;13.290;2024-02-23T10:50:20;1.58;;;0.80;;
6438;SDS011;3252;52.540;13.290;2024-02-23T10:52:23;2.40;;;1.25;;
6438;SDS011;3252;52.540;13.290;2024-02-23T10:54:27;3.00;;;1.23;;
6438;SDS011;3252;52.540;13.290;2024-02-23T10:56:29;1.55;;;0.90;;
6438;SDS011;3252;52.540;13.290;2024-02-23T10:58:31;2.00;;;1.00;;
6438;SDS011;3252;52.540;13.290;2024-02-23T11:00:34;1.30;;;0.85;;
6438;SDS011;3252;52.540;13.290;2024-02-23T11:02:36;5.68;;;2.00;;
6438;SDS011;3252;52.540;13.290;2024-02-23T11:04:49;29.35;;;15.70;;
6438;SDS011;3252;52.540;13.290;2024-02-23T11:06:52;329.92;;;203.68;;
6438;SDS011;3252;52.540;13.290;2024-02-23T11:09:04;343.50;;;204.88;;
6438;SDS011;3252;52.540;13.290;2024-02-23T11:11:07;48.42;;;20.95;;
6438;SDS011;3252;52.540;13.290;2024-02-23T11:13:09;28.77;;;9.77;;
6438;SDS011;3252;52.540;13.290;2024-02-23T11:15:25;62.05;;;24.65;;
6438;SDS011;3252;52.540;13.290;2024-02-23T11:17:28;152.93;;;66.22;;
6438;SDS011;3252;52.540;13.290;2024-02-23T11:19:34;241.82;;;112.95;;
6438;SDS011;3252;52.540;13.290;2024-02-23T11:21:38;303.70;;;131.38;;
6438;SDS011;3252;52.540;13.290;2024-02-23T11:23:40;194.77;;;77.68;;
6438;SDS011;3252;52.540;13.290;2024-02-23T11:25:43;146.63;;;52.70;;
6438;SDS011;3252;52.540;13.290;2024-02-23T11:27:59;369.88;;;184.68;;
6438;SDS011;3252;52.540;13.290;2024-02-23T11:30:02;625.55;;;384.77;;
6438;SDS011;3252;52.540;13.290;2024-02-23T11:32:12;627.50;;;386.45;;
6438;SDS011;3252;52.540;13.290;2024-02-23T11:34:14;944.47;;;619.00;;
6438;SDS011;3252;52.540;13.290;2024-02-23T11:36:25;830.65;;;535.47;;
6438;SDS011;3252;52.540;13.290;2024-02-23T11:38:31;717.63;;;430.58;;
6438;SDS011;3252;52.540;13.290;2024-02-23T11:40:34;620.03;;;343.20;;
6438;SDS011;3252;52.540;13.290;2024-02-23T11:42:36;535.15;;;263.00;;
6438;SDS011;3252;52.540;13.290;2024-02-23T11:44:39;430.67;;;176.13;;
6438;SDS011;3252;52.540;13.290;2024-02-23T11:46:41;327.27;;;122.40;;
6438;SDS011;3252;52.540;13.290;2024-02-23T11:48:42;206.90;;;70.55;;
6438;SDS011;3252;52.540;13.290;2024-02-23T11:50:44;147.25;;;43.75;;
6438;SDS011;3252;52.540;13.290;2024-02-23T11:52:49;118.25;;;44.75;;
6438;SDS011;3252;52.540;13.290;2024-02-23T11:54:52;297.33;;;135.85;;
6438;SDS011;3252;52.540;13.290;2024-02-23T11:56:54;441.45;;;233.95;;
6438;SDS011;3252;52.540;13.290;2024-02-23T11:58:56;854.75;;;570.40;;
6438;SDS011;3252;52.540;13.290;2024-02-23T12:00:58;955.58;;;636.38;;
6438;SDS011;3252;52.540;13.290;2024-02-23T12:03:02;741.78;;;448.30;;
6438;SDS011;3252;52.540;13.290;2024-02-23T12:05:06;679.58;;;392.17;;
6438;SDS011;3252;52.540;13.290;2024-02-23T12:07:08;655.80;;;376.33;;
6438;SDS011;3252;52.540;13.290;2024-02-23T12:09:11;514.22;;;244.30;;
6438;SDS011;3252;52.540;13.290;2024-02-23T12:11:15;360.38;;;140.80;;
6438;SDS011;3252;52.540;13.290;2024-02-23T12:13:16;304.58;;;115.15;;
6438;SDS011;3252;52.540;13.290;2024-02-23T12:15:19;198.60;;;65.47;;
6438;SDS011;3252;52.540;13.290;2024-02-23T12:17:20;102.97;;;30.85;;
6438;SDS011;3252;52.540;13.290;2024-02-23T12:19:22;56.72;;;15.57;;
6438;SDS011;3252;52.540;13.290;2024-02-23T12:21:24;27.10;;;7.55;;
6438;SDS011;3252;52.540;13.290;2024-02-23T12:23:26;13.93;;;3.72;;
6438;SDS011;3252;52.540;13.290;2024-02-23T12:25:38;6.93;;;2.25;;
6438;SDS011;3252;52.540;13.290;2024-02-23T12:27:41;5.10;;;1.73;;